Rippey, Iowa
Current Conditions -  °F | °C
As of 12:35 AM on Thursday 27 Nov 2014 (Local Time) from KPRO Reporting Station
Overcast Overcast  
Wind Chill:   Ceiling: 1300
Heat Index: 19°   Visibility: 10mi
Dew Point: 17°   Wind: 13mph
Humidity: 89%   Direction: 330°NNW
Pressure: 30.41"   Gusts: NA
Location:  41.93°N, 94.2°W
Report Text: KPRO 270635Z AUTO 33011KT 10SM OVC013 M07/M09 A3041 RMK AO2 T10701086
Loading
Personal Weather Stations






























Interactive Weather Map New forecast layout! Learn more

10-Day Weather Forecast

Advertisements
Track Severe Weather on mobile